sensor_id;sensor_type;location;lat;lon;timestamp;temperature;humidity
64888;DHT22;51386;53.082;8.816;2023-08-31T00:01:32;16.90;88.50
64888;DHT22;51386;53.082;8.816;2023-08-31T00:04:02;16.80;87.80
64888;DHT22;51386;53.082;8.816;2023-08-31T00:06:31;16.80;87.70
64888;DHT22;51386;53.082;8.816;2023-08-31T00:08:58;16.80;87.90
64888;DHT22;51386;53.082;8.816;2023-08-31T00:11:25;16.70;88.00
64888;DHT22;51386;53.082;8.816;2023-08-31T00:13:54;16.70;88.30
64888;DHT22;51386;53.082;8.816;2023-08-31T00:16:24;16.70;88.40
64888;DHT22;51386;53.082;8.816;2023-08-31T00:18:54;16.70;89.20
64888;DHT22;51386;53.082;8.816;2023-08-31T00:21:22;16.60;87.70
64888;DHT22;51386;53.082;8.816;2023-08-31T00:23:49;16.60;87.70
64888;DHT22;51386;53.082;8.816;2023-08-31T00:26:17;16.60;87.40
64888;DHT22;51386;53.082;8.816;2023-08-31T00:28:44;16.50;87.40
64888;DHT22;51386;53.082;8.816;2023-08-31T00:31:12;16.50;88.60
64888;DHT22;51386;53.082;8.816;2023-08-31T00:33:39;16.40;87.70
64888;DHT22;51386;53.082;8.816;2023-08-31T00:36:07;16.40;87.60
64888;DHT22;51386;53.082;8.816;2023-08-31T00:38:34;16.40;87.60
64888;DHT22;51386;53.082;8.816;2023-08-31T00:41:02;16.30;87.80
64888;DHT22;51386;53.082;8.816;2023-08-31T00:43:29;16.30;88.20
64888;DHT22;51386;53.082;8.816;2023-08-31T00:45:56;16.20;88.00
64888;DHT22;51386;53.082;8.816;2023-08-31T00:48:26;16.20;88.10
64888;DHT22;51386;53.082;8.816;2023-08-31T00:50:54;16.20;88.00
64888;DHT22;51386;53.082;8.816;2023-08-31T00:53:21;16.20;87.80
64888;DHT22;51386;53.082;8.816;2023-08-31T00:55:49;16.20;87.80
64888;DHT22;51386;53.082;8.816;2023-08-31T00:58:16;16.20;87.90
64888;DHT22;51386;53.082;8.816;2023-08-31T01:00:49;16.20;88.40
64888;DHT22;51386;53.082;8.816;2023-08-31T01:03:31;16.20;87.90
64888;DHT22;51386;53.082;8.816;2023-08-31T01:06:09;16.20;87.40
64888;DHT22;51386;53.082;8.816;2023-08-31T01:08:50;16.20;87.20
64888;DHT22;51386;53.082;8.816;2023-08-31T01:11:29;16.10;86.90
64888;DHT22;51386;53.082;8.816;2023-08-31T01:14:02;16.10;86.90
64888;DHT22;51386;53.082;8.816;2023-08-31T01:16:39;16.10;87.00
64888;DHT22;51386;53.082;8.816;2023-08-31T01:22:19;15.90;87.00
64888;DHT22;51386;53.082;8.816;2023-08-31T01:24:58;15.90;87.00
64888;DHT22;51386;53.082;8.816;2023-08-31T01:27:30;15.80;87.40
64888;DHT22;51386;53.082;8.816;2023-08-31T01:29:58;15.80;87.40
64888;DHT22;51386;53.082;8.816;2023-08-31T01:32:26;15.80;87.90
64888;DHT22;51386;53.082;8.816;2023-08-31T01:34:53;15.80;87.90
64888;DHT22;51386;53.082;8.816;2023-08-31T01:37:28;15.80;87.90
64888;DHT22;51386;53.082;8.816;2023-08-31T01:40:03;15.80;87.70
64888;DHT22;51386;53.082;8.816;2023-08-31T01:42:38;15.80;87.90
64888;DHT22;51386;53.082;8.816;2023-08-31T01:45:08;15.80;88.20
64888;DHT22;51386;53.082;8.816;2023-08-31T01:47:37;15.90;88.20
64888;DHT22;51386;53.082;8.816;2023-08-31T01:50:05;15.90;88.10
64888;DHT22;51386;53.082;8.816;2023-08-31T01:52:33;15.90;87.70
64888;DHT22;51386;53.082;8.816;2023-08-31T01:55:01;15.80;87.50
64888;DHT22;51386;53.082;8.816;2023-08-31T01:57:28;15.80;87.60
64888;DHT22;51386;53.082;8.816;2023-08-31T01:59:56;15.80;87.50
64888;DHT22;51386;53.082;8.816;2023-08-31T02:02:23;15.80;87.40
64888;DHT22;51386;53.082;8.816;2023-08-31T02:04:50;15.80;87.60
64888;DHT22;51386;53.082;8.816;2023-08-31T02:07:18;15.80;87.60
64888;DHT22;51386;53.082;8.816;2023-08-31T02:09:45;15.70;87.60
64888;DHT22;51386;53.082;8.816;2023-08-31T02:12:14;15.70;87.90
64888;DHT22;51386;53.082;8.816;2023-08-31T02:14:41;15.70;88.10
64888;DHT22;51386;53.082;8.816;2023-08-31T02:17:08;15.70;88.40
64888;DHT22;51386;53.082;8.816;2023-08-31T02:19:35;15.70;88.20
64888;DHT22;51386;53.082;8.816;2023-08-31T02:22:02;15.70;88.20
64888;DHT22;51386;53.082;8.816;2023-08-31T02:24:29;15.70;87.90
64888;DHT22;51386;53.082;8.816;2023-08-31T02:26:56;15.60;87.90
64888;DHT22;51386;53.082;8.816;2023-08-31T02:29:25;15.60;88.10
64888;DHT22;51386;53.082;8.816;2023-08-31T02:31:52;15.60;88.30
64888;DHT22;51386;53.082;8.816;2023-08-31T02:34:19;15.60;88.50
64888;DHT22;51386;53.082;8.816;2023-08-31T02:36:46;15.60;88.10
64888;DHT22;51386;53.082;8.816;2023-08-31T02:39:13;15.60;87.90
64888;DHT22;51386;53.082;8.816;2023-08-31T02:41:40;15.60;87.90
64888;DHT22;51386;53.082;8.816;2023-08-31T02:44:07;15.50;87.90
64888;DHT22;51386;53.082;8.816;2023-08-31T02:46:36;15.50;88.00
64888;DHT22;51386;53.082;8.816;2023-08-31T02:49:03;15.30;88.40
64888;DHT22;51386;53.082;8.816;2023-08-31T02:51:30;15.30;88.90
64888;DHT22;51386;53.082;8.816;2023-08-31T02:53:57;15.30;88.90
64888;DHT22;51386;53.082;8.816;2023-08-31T02:56:24;15.20;89.30
64888;DHT22;51386;53.082;8.816;2023-08-31T02:58:51;15.20;90.00
64888;DHT22;51386;53.082;8.816;2023-08-31T03:01:18;15.20;89.40
64888;DHT22;51386;53.082;8.816;2023-08-31T03:03:47;15.20;89.30
64888;DHT22;51386;53.082;8.816;2023-08-31T03:06:14;15.30;89.50
64888;DHT22;51386;53.082;8.816;2023-08-31T03:08:41;15.30;89.20
64888;DHT22;51386;53.082;8.816;2023-08-31T03:11:08;15.20;88.80
64888;DHT22;51386;53.082;8.816;2023-08-31T03:13:36;15.20;88.80
64888;DHT22;51386;53.082;8.816;2023-08-31T03:16:03;15.10;88.70
64888;DHT22;51386;53.082;8.816;2023-08-31T03:18:30;15.10;89.10
64888;DHT22;51386;53.082;8.816;2023-08-31T03:20:58;15.00;89.40
64888;DHT22;51386;53.082;8.816;2023-08-31T03:23:27;14.90;89.30
64888;DHT22;51386;53.082;8.816;2023-08-31T03:25:55;14.90;89.70
64888;DHT22;51386;53.082;8.816;2023-08-31T03:28:22;14.80;89.70
64888;DHT22;51386;53.082;8.816;2023-08-31T03:30:54;14.80;89.70
64888;DHT22;51386;53.082;8.816;2023-08-31T03:33:22;14.70;89.60
64888;DHT22;51386;53.082;8.816;2023-08-31T03:35:49;14.70;90.00
64888;DHT22;51386;53.082;8.816;2023-08-31T03:38:18;14.60;90.10
64888;DHT22;51386;53.082;8.816;2023-08-31T03:40:52;14.60;90.10
64888;DHT22;51386;53.082;8.816;2023-08-31T03:43:20;14.60;90.20
64888;DHT22;51386;53.082;8.816;2023-08-31T03:45:48;14.60;90.20
64888;DHT22;51386;53.082;8.816;2023-08-31T03:48:17;14.50;90.20
64888;DHT22;51386;53.082;8.816;2023-08-31T03:50:45;14.40;90.30
64888;DHT22;51386;53.082;8.816;2023-08-31T03:53:15;14.40;90.40
64888;DHT22;51386;53.082;8.816;2023-08-31T03:55:44;14.40;90.50
64888;DHT22;51386;53.082;8.816;2023-08-31T03:58:11;14.30;90.60
64888;DHT22;51386;53.082;8.816;2023-08-31T04:00:38;14.30;90.60
64888;DHT22;51386;53.082;8.816;2023-08-31T04:03:07;14.30;90.60
64888;DHT22;51386;53.082;8.816;2023-08-31T04:05:36;14.30;90.70
64888;DHT22;51386;53.082;8.816;2023-08-31T04:08:04;14.30;90.70
64888;DHT22;51386;53.082;8.816;2023-08-31T04:10:31;14.30;90.70
64888;DHT22;51386;53.082;8.816;2023-08-31T04:13:00;14.30;90.70
64888;DHT22;51386;53.082;8.816;2023-08-31T04:15:27;14.20;90.80
64888;DHT22;51386;53.082;8.816;2023-08-31T04:17:54;14.20;90.80
64888;DHT22;51386;53.082;8.816;2023-08-31T04:20:22;14.20;90.80
64888;DHT22;51386;53.082;8.816;2023-08-31T04:22:49;14.20;90.90
64888;DHT22;51386;53.082;8.816;2023-08-31T04:25:17;14.20;90.90
64888;DHT22;51386;53.082;8.816;2023-08-31T04:27:44;14.30;90.90
64888;DHT22;51386;53.082;8.816;2023-08-31T04:30:13;14.30;90.90
64888;DHT22;51386;53.082;8.816;2023-08-31T04:32:43;14.30;90.80
64888;DHT22;51386;53.082;8.816;2023-08-31T04:35:11;14.30;90.90
64888;DHT22;51386;53.082;8.816;2023-08-31T04:37:38;14.40;90.90
64888;DHT22;51386;53.082;8.816;2023-08-31T04:40:06;14.40;90.90
64888;DHT22;51386;53.082;8.816;2023-08-31T04:42:35;14.30;90.70
64888;DHT22;51386;53.082;8.816;2023-08-31T04:45:03;14.40;90.70
64888;DHT22;51386;53.082;8.816;2023-08-31T04:47:32;14.30;90.70
64888;DHT22;51386;53.082;8.816;2023-08-31T04:49:59;14.40;90.70
64888;DHT22;51386;53.082;8.816;2023-08-31T04:52:26;14.40;90.70
64888;DHT22;51386;53.082;8.816;2023-08-31T04:54:54;14.30;90.70
64888;DHT22;51386;53.082;8.816;2023-08-31T04:57:21;14.40;90.80
64888;DHT22;51386;53.082;8.816;2023-08-31T04:59:48;14.30;90.70
64888;DHT22;51386;53.082;8.816;2023-08-31T05:02:15;14.30;90.70
64888;DHT22;51386;53.082;8.816;2023-08-31T05:04:43;14.30;90.80
64888;DHT22;51386;53.082;8.816;2023-08-31T05:07:10;14.30;90.90
64888;DHT22;51386;53.082;8.816;2023-08-31T05:09:37;14.30;90.90
64888;DHT22;51386;53.082;8.816;2023-08-31T05:12:05;14.30;91.00
64888;DHT22;51386;53.082;8.816;2023-08-31T05:14:36;14.30;91.00
64888;DHT22;51386;53.082;8.816;2023-08-31T05:17:04;14.30;91.00
64888;DHT22;51386;53.082;8.816;2023-08-31T05:19:31;14.30;91.00
64888;DHT22;51386;53.082;8.816;2023-08-31T05:22:00;14.40;91.00
64888;DHT22;51386;53.082;8.816;2023-08-31T05:24:27;14.50;91.00
64888;DHT22;51386;53.082;8.816;2023-08-31T05:26:54;14.50;90.90
64888;DHT22;51386;53.082;8.816;2023-08-31T05:29:21;14.50;90.90
64888;DHT22;51386;53.082;8.816;2023-08-31T05:31:48;14.50;90.80
64888;DHT22;51386;53.082;8.816;2023-08-31T05:34:16;14.60;90.80
64888;DHT22;51386;53.082;8.816;2023-08-31T05:36:46;14.60;90.70
64888;DHT22;51386;53.082;8.816;2023-08-31T05:39:14;14.60;90.70
64888;DHT22;51386;53.082;8.816;2023-08-31T05:41:43;14.60;90.70
64888;DHT22;51386;53.082;8.816;2023-08-31T05:44:10;14.70;90.70
64888;DHT22;51386;53.082;8.816;2023-08-31T05:46:37;14.70;90.70
64888;DHT22;51386;53.082;8.816;2023-08-31T05:49:06;14.70;90.70
64888;DHT22;51386;53.082;8.816;2023-08-31T05:51:34;14.70;90.90
64888;DHT22;51386;53.082;8.816;2023-08-31T05:54:01;14.80;90.60
64888;DHT22;51386;53.082;8.816;2023-08-31T05:56:31;14.80;90.60
64888;DHT22;51386;53.082;8.816;2023-08-31T05:58:58;14.80;90.60
64888;DHT22;51386;53.082;8.816;2023-08-31T06:01:25;14.90;90.50
64888;DHT22;51386;53.082;8.816;2023-08-31T06:03:52;14.90;90.40
64888;DHT22;51386;53.082;8.816;2023-08-31T06:06:19;14.90;90.30
64888;DHT22;51386;53.082;8.816;2023-08-31T06:08:46;14.90;90.40
64888;DHT22;51386;53.082;8.816;2023-08-31T06:11:14;14.90;90.30
64888;DHT22;51386;53.082;8.816;2023-08-31T06:13:43;14.90;90.30
64888;DHT22;51386;53.082;8.816;2023-08-31T06:16:10;14.90;90.40
64888;DHT22;51386;53.082;8.816;2023-08-31T06:18:37;15.00;90.40
64888;DHT22;51386;53.082;8.816;2023-08-31T06:21:04;15.00;90.40
64888;DHT22;51386;53.082;8.816;2023-08-31T06:23:31;15.00;90.50
64888;DHT22;51386;53.082;8.816;2023-08-31T06:25:58;15.10;90.50
64888;DHT22;51386;53.082;8.816;2023-08-31T06:28:26;15.10;90.40
64888;DHT22;51386;53.082;8.816;2023-08-31T06:30:54;15.10;90.40
64888;DHT22;51386;53.082;8.816;2023-08-31T06:33:21;15.10;90.30
64888;DHT22;51386;53.082;8.816;2023-08-31T06:35:48;15.10;90.30
64888;DHT22;51386;53.082;8.816;2023-08-31T06:38:18;15.20;90.40
64888;DHT22;51386;53.082;8.816;2023-08-31T06:40:46;15.20;90.40
64888;DHT22;51386;53.082;8.816;2023-08-31T06:43:13;15.20;90.40
64888;DHT22;51386;53.082;8.816;2023-08-31T06:45:41;15.20;90.40
64888;DHT22;51386;53.082;8.816;2023-08-31T06:48:09;15.20;90.40
64888;DHT22;51386;53.082;8.816;2023-08-31T06:50:36;15.30;90.50
64888;DHT22;51386;53.082;8.816;2023-08-31T06:53:04;15.40;90.40
64888;DHT22;51386;53.082;8.816;2023-08-31T06:55:31;15.50;90.40
64888;DHT22;51386;53.082;8.816;2023-08-31T06:57:59;15.60;90.40
64888;DHT22;51386;53.082;8.816;2023-08-31T07:00:26;15.70;90.20
64888;DHT22;51386;53.082;8.816;2023-08-31T07:02:53;15.90;90.10
64888;DHT22;51386;53.082;8.816;2023-08-31T07:05:25;16.00;88.90
64888;DHT22;51386;53.082;8.816;2023-08-31T07:07:54;16.10;88.70
64888;DHT22;51386;53.082;8.816;2023-08-31T07:10:22;16.20;88.00
64888;DHT22;51386;53.082;8.816;2023-08-31T07:12:49;16.20;87.80
64888;DHT22;51386;53.082;8.816;2023-08-31T07:15:16;16.10;87.60
64888;DHT22;51386;53.082;8.816;2023-08-31T07:17:43;16.20;88.30
64888;DHT22;51386;53.082;8.816;2023-08-31T07:20:11;16.10;88.80
64888;DHT22;51386;53.082;8.816;2023-08-31T07:22:40;16.10;89.60
64888;DHT22;51386;53.082;8.816;2023-08-31T07:25:08;16.10;89.60
64888;DHT22;51386;53.082;8.816;2023-08-31T07:27:35;16.10;89.70
64888;DHT22;51386;53.082;8.816;2023-08-31T07:30:03;16.00;89.70
64888;DHT22;51386;53.082;8.816;2023-08-31T07:32:31;16.00;89.80
64888;DHT22;51386;53.082;8.816;2023-08-31T07:34:58;15.90;90.00
64888;DHT22;51386;53.082;8.816;2023-08-31T07:37:26;15.90;90.20
64888;DHT22;51386;53.082;8.816;2023-08-31T07:39:54;15.90;90.40
64888;DHT22;51386;53.082;8.816;2023-08-31T07:42:21;15.90;90.40
64888;DHT22;51386;53.082;8.816;2023-08-31T07:44:48;15.90;90.40
64888;DHT22;51386;53.082;8.816;2023-08-31T07:47:15;15.90;90.40
64888;DHT22;51386;53.082;8.816;2023-08-31T07:49:42;16.00;90.50
64888;DHT22;51386;53.082;8.816;2023-08-31T07:52:10;16.00;90.40
64888;DHT22;51386;53.082;8.816;2023-08-31T07:54:38;16.10;90.40
64888;DHT22;51386;53.082;8.816;2023-08-31T07:57:06;16.10;90.10
64888;DHT22;51386;53.082;8.816;2023-08-31T07:59:33;16.20;90.10
64888;DHT22;51386;53.082;8.816;2023-08-31T08:02:00;16.20;90.20
64888;DHT22;51386;53.082;8.816;2023-08-31T08:04:27;16.20;89.80
64888;DHT22;51386;53.082;8.816;2023-08-31T08:06:56;16.40;90.00
64888;DHT22;51386;53.082;8.816;2023-08-31T08:09:23;16.40;89.70
64888;DHT22;51386;53.082;8.816;2023-08-31T08:11:50;16.40;89.50
64888;DHT22;51386;53.082;8.816;2023-08-31T08:14:19;16.50;89.70
64888;DHT22;51386;53.082;8.816;2023-08-31T08:16:46;16.50;89.90
64888;DHT22;51386;53.082;8.816;2023-08-31T08:19:13;16.50;90.00
64888;DHT22;51386;53.082;8.816;2023-08-31T08:21:40;16.50;89.50
64888;DHT22;51386;53.082;8.816;2023-08-31T08:24:07;16.60;89.60
64888;DHT22;51386;53.082;8.816;2023-08-31T08:26:34;16.60;89.40
64888;DHT22;51386;53.082;8.816;2023-08-31T08:29:01;16.60;89.40
64888;DHT22;51386;53.082;8.816;2023-08-31T08:31:31;16.60;89.20
64888;DHT22;51386;53.082;8.816;2023-08-31T08:33:58;16.60;88.80
64888;DHT22;51386;53.082;8.816;2023-08-31T08:36:25;16.60;88.60
64888;DHT22;51386;53.082;8.816;2023-08-31T08:38:52;16.60;88.70
64888;DHT22;51386;53.082;8.816;2023-08-31T08:41:23;16.60;88.80
64888;DHT22;51386;53.082;8.816;2023-08-31T08:43:51;16.50;88.70
64888;DHT22;51386;53.082;8.816;2023-08-31T08:46:19;16.50;88.80
64888;DHT22;51386;53.082;8.816;2023-08-31T08:48:48;16.50;88.80
64888;DHT22;51386;53.082;8.816;2023-08-31T08:51:16;16.60;88.90
64888;DHT22;51386;53.082;8.816;2023-08-31T08:53:43;16.60;88.90
64888;DHT22;51386;53.082;8.816;2023-08-31T08:56:11;16.60;89.00
64888;DHT22;51386;53.082;8.816;2023-08-31T08:58:38;16.70;89.20
64888;DHT22;51386;53.082;8.816;2023-08-31T09:01:07;16.70;88.90
64888;DHT22;51386;53.082;8.816;2023-08-31T09:03:35;16.80;89.30
64888;DHT22;51386;53.082;8.816;2023-08-31T09:06:04;16.80;89.30
64888;DHT22;51386;53.082;8.816;2023-08-31T09:08:34;16.90;88.90
64888;DHT22;51386;53.082;8.816;2023-08-31T09:11:03;17.00;88.60
64888;DHT22;51386;53.082;8.816;2023-08-31T09:13:32;17.00;88.20
64888;DHT22;51386;53.082;8.816;2023-08-31T09:16:00;17.10;88.00
64888;DHT22;51386;53.082;8.816;2023-08-31T09:18:28;17.10;88.10
64888;DHT22;51386;53.082;8.816;2023-08-31T09:20:57;17.10;88.10
64888;DHT22;51386;53.082;8.816;2023-08-31T09:23:25;17.10;88.00
64888;DHT22;51386;53.082;8.816;2023-08-31T09:25:54;17.10;88.00
64888;DHT22;51386;53.082;8.816;2023-08-31T09:28:23;17.20;88.50
64888;DHT22;51386;53.082;8.816;2023-08-31T09:31:03;17.20;88.40
64888;DHT22;51386;53.082;8.816;2023-08-31T09:33:34;17.30;88.30
64888;DHT22;51386;53.082;8.816;2023-08-31T09:36:07;17.40;88.90
64888;DHT22;51386;53.082;8.816;2023-08-31T09:38:42;17.70;89.80
64888;DHT22;51386;53.082;8.816;2023-08-31T09:41:10;18.20;86.90
64888;DHT22;51386;53.082;8.816;2023-08-31T09:43:38;18.70;85.10
64888;DHT22;51386;53.082;8.816;2023-08-31T09:46:06;19.30;84.70
64888;DHT22;51386;53.082;8.816;2023-08-31T09:48:35;19.70;83.10
64888;DHT22;51386;53.082;8.816;2023-08-31T09:51:04;20.10;79.60
64888;DHT22;51386;53.082;8.816;2023-08-31T09:53:36;20.50;79.20
64888;DHT22;51386;53.082;8.816;2023-08-31T09:56:06;20.80;77.30
64888;DHT22;51386;53.082;8.816;2023-08-31T09:58:34;20.90;75.80
64888;DHT22;51386;53.082;8.816;2023-08-31T10:01:02;21.20;76.20
64888;DHT22;51386;53.082;8.816;2023-08-31T10:03:42;21.60;74.00
64888;DHT22;51386;53.082;8.816;2023-08-31T10:06:10;22.00;72.30
64888;DHT22;51386;53.082;8.816;2023-08-31T10:08:39;22.50;70.50
64888;DHT22;51386;53.082;8.816;2023-08-31T10:11:10;22.80;68.50
64888;DHT22;51386;53.082;8.816;2023-08-31T10:13:41;23.00;66.20
64888;DHT22;51386;53.082;8.816;2023-08-31T10:16:10;23.20;66.50
64888;DHT22;51386;53.082;8.816;2023-08-31T10:18:39;23.30;65.10
64888;DHT22;51386;53.082;8.816;2023-08-31T10:21:06;23.30;63.80
64888;DHT22;51386;53.082;8.816;2023-08-31T10:23:33;23.30;63.90
64888;DHT22;51386;53.082;8.816;2023-08-31T10:26:05;23.10;63.70
64888;DHT22;51386;53.082;8.816;2023-08-31T10:28:42;23.00;64.20
64888;DHT22;51386;53.082;8.816;2023-08-31T10:31:10;22.90;64.90
64888;DHT22;51386;53.082;8.816;2023-08-31T10:33:44;22.80;64.40
64888;DHT22;51386;53.082;8.816;2023-08-31T10:36:13;22.80;65.70
64888;DHT22;51386;53.082;8.816;2023-08-31T10:38:42;22.70;63.70
64888;DHT22;51386;53.082;8.816;2023-08-31T10:41:19;22.70;63.10
64888;DHT22;51386;53.082;8.816;2023-08-31T10:43:51;22.60;63.30
64888;DHT22;51386;53.082;8.816;2023-08-31T10:46:27;22.60;63.80
64888;DHT22;51386;53.082;8.816;2023-08-31T10:48:56;22.50;63.30
64888;DHT22;51386;53.082;8.816;2023-08-31T10:51:26;22.50;63.30
64888;DHT22;51386;53.082;8.816;2023-08-31T10:54:05;22.50;63.10
64888;DHT22;51386;53.082;8.816;2023-08-31T10:57:03;22.40;61.60
64888;DHT22;51386;53.082;8.816;2023-08-31T10:59:44;22.30;61.30
64888;DHT22;51386;53.082;8.816;2023-08-31T11:02:33;22.20;60.50
64888;DHT22;51386;53.082;8.816;2023-08-31T11:05:06;22.00;62.70
64888;DHT22;51386;53.082;8.816;2023-08-31T11:07:35;21.80;66.70
64888;DHT22;51386;53.082;8.816;2023-08-31T11:10:14;21.60;68.00
64888;DHT22;51386;53.082;8.816;2023-08-31T11:12:48;21.40;69.30
64888;DHT22;51386;53.082;8.816;2023-08-31T11:15:19;21.30;70.30
64888;DHT22;51386;53.082;8.816;2023-08-31T11:17:49;21.20;70.70
64888;DHT22;51386;53.082;8.816;2023-08-31T11:20:19;21.20;69.50
64888;DHT22;51386;53.082;8.816;2023-08-31T11:22:48;21.10;68.20
64888;DHT22;51386;53.082;8.816;2023-08-31T11:25:17;21.10;66.50
64888;DHT22;51386;53.082;8.816;2023-08-31T11:27:53;21.00;66.50
64888;DHT22;51386;53.082;8.816;2023-08-31T11:30:22;21.00;66.00
64888;DHT22;51386;53.082;8.816;2023-08-31T11:32:51;20.90;67.00
64888;DHT22;51386;53.082;8.816;2023-08-31T11:35:19;20.90;66.70
64888;DHT22;51386;53.082;8.816;2023-08-31T11:37:50;20.70;67.50
64888;DHT22;51386;53.082;8.816;2023-08-31T11:40:18;20.70;68.10
64888;DHT22;51386;53.082;8.816;2023-08-31T11:42:47;20.60;68.20
64888;DHT22;51386;53.082;8.816;2023-08-31T11:45:16;20.50;69.20
64888;DHT22;51386;53.082;8.816;2023-08-31T11:47:47;20.40;70.30
64888;DHT22;51386;53.082;8.816;2023-08-31T11:50:16;20.30;70.40
64888;DHT22;51386;53.082;8.816;2023-08-31T11:52:44;20.20;71.70
64888;DHT22;51386;53.082;8.816;2023-08-31T11:55:12;20.10;72.70
64888;DHT22;51386;53.082;8.816;2023-08-31T11:57:47;20.00;72.80
64888;DHT22;51386;53.082;8.816;2023-08-31T12:00:17;19.90;71.00
64888;DHT22;51386;53.082;8.816;2023-08-31T12:02:55;19.80;71.00
64888;DHT22;51386;53.082;8.816;2023-08-31T12:05:23;19.60;72.00
64888;DHT22;51386;53.082;8.816;2023-08-31T12:07:50;19.30;71.60
64888;DHT22;51386;53.082;8.816;2023-08-31T12:10:21;19.10;72.60
64888;DHT22;51386;53.082;8.816;2023-08-31T12:12:50;19.00;74.10
64888;DHT22;51386;53.082;8.816;2023-08-31T12:15:19;18.90;73.70
64888;DHT22;51386;53.082;8.816;2023-08-31T12:17:50;18.80;74.20
64888;DHT22;51386;53.082;8.816;2023-08-31T12:20:24;18.70;76.20
64888;DHT22;51386;53.082;8.816;2023-08-31T12:22:53;18.70;76.90
64888;DHT22;51386;53.082;8.816;2023-08-31T12:25:20;18.60;76.70
64888;DHT22;51386;53.082;8.816;2023-08-31T12:27:47;18.50;77.20
64888;DHT22;51386;53.082;8.816;2023-08-31T12:30:15;18.50;78.70
64888;DHT22;51386;53.082;8.816;2023-08-31T12:32:42;18.50;78.80
64888;DHT22;51386;53.082;8.816;2023-08-31T12:35:11;18.40;79.00
64888;DHT22;51386;53.082;8.816;2023-08-31T12:37:38;18.50;79.10
64888;DHT22;51386;53.082;8.816;2023-08-31T12:40:07;18.50;79.30
64888;DHT22;51386;53.082;8.816;2023-08-31T12:42:36;18.50;78.50
64888;DHT22;51386;53.082;8.816;2023-08-31T12:45:04;18.50;79.00
64888;DHT22;51386;53.082;8.816;2023-08-31T12:47:34;18.50;79.50
64888;DHT22;51386;53.082;8.816;2023-08-31T12:50:01;18.50;79.30
64888;DHT22;51386;53.082;8.816;2023-08-31T12:52:31;18.50;80.40
64888;DHT22;51386;53.082;8.816;2023-08-31T12:54:58;18.60;80.30
64888;DHT22;51386;53.082;8.816;2023-08-31T12:57:25;18.60;78.80
64888;DHT22;51386;53.082;8.816;2023-08-31T12:59:52;18.60;79.80
64888;DHT22;51386;53.082;8.816;2023-08-31T13:02:19;18.60;79.80
64888;DHT22;51386;53.082;8.816;2023-08-31T13:04:47;18.70;80.00
64888;DHT22;51386;53.082;8.816;2023-08-31T13:07:14;18.60;80.30
64888;DHT22;51386;53.082;8.816;2023-08-31T13:09:42;18.60;80.40
64888;DHT22;51386;53.082;8.816;2023-08-31T13:12:11;18.60;80.90
64888;DHT22;51386;53.082;8.816;2023-08-31T13:14:38;18.60;81.40
64888;DHT22;51386;53.082;8.816;2023-08-31T13:17:05;18.50;81.70
64888;DHT22;51386;53.082;8.816;2023-08-31T13:19:33;18.50;82.30
64888;DHT22;51386;53.082;8.816;2023-08-31T13:22:00;18.50;81.90
64888;DHT22;51386;53.082;8.816;2023-08-31T13:24:27;18.60;80.80
64888;DHT22;51386;53.082;8.816;2023-08-31T13:26:55;18.60;81.00
64888;DHT22;51386;53.082;8.816;2023-08-31T13:29:22;18.70;81.40
64888;DHT22;51386;53.082;8.816;2023-08-31T13:31:49;18.80;82.30
64888;DHT22;51386;53.082;8.816;2023-08-31T13:34:16;18.90;81.80
64888;DHT22;51386;53.082;8.816;2023-08-31T13:36:45;19.10;81.30
64888;DHT22;51386;53.082;8.816;2023-08-31T13:39:13;19.20;81.00
64888;DHT22;51386;53.082;8.816;2023-08-31T13:41:40;19.30;81.30
64888;DHT22;51386;53.082;8.816;2023-08-31T13:44:08;19.40;80.50
64888;DHT22;51386;53.082;8.816;2023-08-31T13:46:36;19.40;78.40
64888;DHT22;51386;53.082;8.816;2023-08-31T13:49:03;19.50;78.70
64888;DHT22;51386;53.082;8.816;2023-08-31T13:51:30;19.50;78.60
64888;DHT22;51386;53.082;8.816;2023-08-31T13:53:57;19.50;79.00
64888;DHT22;51386;53.082;8.816;2023-08-31T13:56:24;19.50;78.70
64888;DHT22;51386;53.082;8.816;2023-08-31T13:58:51;19.50;79.10
64888;DHT22;51386;53.082;8.816;2023-08-31T14:01:20;19.50;79.30
64888;DHT22;51386;53.082;8.816;2023-08-31T14:03:47;19.50;79.70
64888;DHT22;51386;53.082;8.816;2023-08-31T14:06:14;19.60;80.70
64888;DHT22;51386;53.082;8.816;2023-08-31T14:08:41;19.60;80.60
64888;DHT22;51386;53.082;8.816;2023-08-31T14:11:08;19.60;80.30
64888;DHT22;51386;53.082;8.816;2023-08-31T14:13:35;19.50;79.80
64888;DHT22;51386;53.082;8.816;2023-08-31T14:16:03;19.50;79.90
64888;DHT22;51386;53.082;8.816;2023-08-31T14:18:32;19.40;80.00
64888;DHT22;51386;53.082;8.816;2023-08-31T14:20:59;19.40;80.70
64888;DHT22;51386;53.082;8.816;2023-08-31T14:23:27;19.30;80.10
64888;DHT22;51386;53.082;8.816;2023-08-31T14:26:00;19.20;80.20
64888;DHT22;51386;53.082;8.816;2023-08-31T14:28:28;19.10;81.00
64888;DHT22;51386;53.082;8.816;2023-08-31T14:30:55;19.00;81.40
64888;DHT22;51386;53.082;8.816;2023-08-31T14:33:22;19.00;82.40
64888;DHT22;51386;53.082;8.816;2023-08-31T14:35:51;18.90;82.10
64888;DHT22;51386;53.082;8.816;2023-08-31T14:38:22;18.90;82.50
64888;DHT22;51386;53.082;8.816;2023-08-31T14:40:51;18.80;83.00
64888;DHT22;51386;53.082;8.816;2023-08-31T14:43:18;18.80;82.40
64888;DHT22;51386;53.082;8.816;2023-08-31T14:45:45;18.70;82.20
64888;DHT22;51386;53.082;8.816;2023-08-31T14:48:14;18.70;82.80
64888;DHT22;51386;53.082;8.816;2023-08-31T14:50:42;18.70;83.50
64888;DHT22;51386;53.082;8.816;2023-08-31T14:53:11;18.70;83.30
64888;DHT22;51386;53.082;8.816;2023-08-31T14:55:39;18.60;83.20
64888;DHT22;51386;53.082;8.816;2023-08-31T14:58:06;18.60;83.30
64888;DHT22;51386;53.082;8.816;2023-08-31T15:00:33;18.60;83.00
64888;DHT22;51386;53.082;8.816;2023-08-31T15:03:00;18.60;83.00
64888;DHT22;51386;53.082;8.816;2023-08-31T15:05:27;18.60;83.10
64888;DHT22;51386;53.082;8.816;2023-08-31T15:07:57;18.60;83.40
64888;DHT22;51386;53.082;8.816;2023-08-31T15:10:27;18.70;83.90
64888;DHT22;51386;53.082;8.816;2023-08-31T15:12:54;18.80;84.00
64888;DHT22;51386;53.082;8.816;2023-08-31T15:15:25;18.90;83.20
64888;DHT22;51386;53.082;8.816;2023-08-31T15:17:53;19.10;81.90
64888;DHT22;51386;53.082;8.816;2023-08-31T15:20:20;19.20;81.20
64888;DHT22;51386;53.082;8.816;2023-08-31T15:22:48;19.30;81.00
64888;DHT22;51386;53.082;8.816;2023-08-31T15:25:15;19.40;80.50
64888;DHT22;51386;53.082;8.816;2023-08-31T15:27:43;19.40;80.00
64888;DHT22;51386;53.082;8.816;2023-08-31T15:30:12;19.50;79.20
64888;DHT22;51386;53.082;8.816;2023-08-31T15:32:39;19.50;78.80
64888;DHT22;51386;53.082;8.816;2023-08-31T15:35:07;19.50;78.70
64888;DHT22;51386;53.082;8.816;2023-08-31T15:37:35;19.40;78.70
64888;DHT22;51386;53.082;8.816;2023-08-31T15:40:02;19.40;78.80
64888;DHT22;51386;53.082;8.816;2023-08-31T15:42:29;19.40;79.30